Capitol Logistics 1131


EBLG
Liège Airport
Liege, BE
EDDF
Frankfurt Rhein-Main
Frankfurt, DE

Activity Log

Date Flight Route Aircraft Duration
01/14/2020 CPX1131 EBLG LNO7S LNO M170 NVO Q760 RASVO T180 UNOKO UNO07S EDDF B738 0h 39m
11/27/2019 CPX1131 EBLG LNO5E LNO UN852 PELIX UZ210 NOSPA T729 EMGOD Z658 ROLIS ROLI2B EDDF B738 0h 47m
10/28/2019 CPX731 Not Available B738 0h 41m
09/28/2019 CPX731 N0392F190 LNO/N0368F190 L607 ARCKY T181 TOBOP T180 UNOKO B738 0h 51m
09/28/2019 CPX731 LNO7S LNO SPI UZ112 RASVO T180 UNOKO UNOK2L B738 0h 51m

Route Details

Aircraft Information
Primary: Boeing 737-800BCF
Backup: Not Available
Route Data
Distance: 125nm
Sched. Duration: 1h 00m
Avg. Duration: 0h 45m (-54m)
Times Flown: 5
Recm'd Route: Not Available
Planned Altitude: 25,000ft
Origin Wx: EBLG 281220Z 19015KT CAVOK 05/M00 Q1015 NOSIG
Dest. Wx: EDDF 281220Z 21014KT 9999 SCT022 06/00 Q1019 R25R/19//95 R25C/19//95 R25L/19//95 R18/19//95 NOSIG
Notes:

Financial History
Total Freight: 158,929lbs
Average Load: 31,786lbs/flt
Fuel Used: 19,801lbs
Avg. Fuel Used: 3,960lbs/flt
Fuel Expense: $21,979
Avg. Fuel Expense: $4,396
Avg. Fuel Cost: $1.11/lbs
Total Gross Income: $332,009
Pilot Pay: $1,145
Total Expenses: $36,117
Total Revenue: $273,163
Average Revenue: $66,401.72